createdAt,value
2018-12-01T00:00:50.757Z,34.07
2018-12-01T00:03:18.099Z,37.67
2018-12-01T00:05:45.406Z,36.63
2018-12-01T00:08:12.737Z,35.80
2018-12-01T00:10:40.027Z,40.97
2018-12-01T00:13:07.302Z,38.23
2018-12-01T00:15:34.589Z,37.50
2018-12-01T00:18:01.919Z,39.10
2018-12-01T00:20:31.266Z,40.17
2018-12-01T00:22:58.598Z,42.03
2018-12-01T00:25:25.927Z,42.73
2018-12-01T00:27:53.214Z,43.23
2018-12-01T00:30:22.434Z,42.53
2018-12-01T00:32:49.744Z,38.53
2018-12-01T00:35:17.073Z,39.37
2018-12-01T00:37:44.378Z,41.77
2018-12-01T00:40:15.581Z,41.30
2018-12-01T00:42:42.958Z,40.40
2018-12-01T00:45:11.409Z,41.93
2018-12-01T00:47:38.734Z,41.63
2018-12-01T00:50:08.894Z,44.70
2018-12-01T00:52:36.179Z,41.30
2018-12-01T00:55:03.886Z,43.77
2018-12-01T00:57:31.155Z,43.37
2018-12-01T00:59:58.441Z,44.57
2018-12-01T01:02:31.402Z,42.63
2018-12-01T01:04:58.722Z,46.17
2018-12-01T01:07:26.017Z,42.87
2018-12-01T01:09:53.313Z,39.97
2018-12-01T01:12:20.638Z,42.87
2018-12-01T01:14:47.910Z,43.87
2018-12-01T01:17:15.214Z,42.17
2018-12-01T01:19:42.550Z,43.57
2018-12-01T01:22:09.823Z,42.20
2018-12-01T01:24:37.179Z,45.13
2018-12-01T01:27:04.906Z,44.70
2018-12-01T01:29:32.241Z,43.17
2018-12-01T01:31:59.513Z,46.07
2018-12-01T01:34:26.811Z,41.83
2018-12-01T01:36:54.130Z,46.70
2018-12-01T01:39:21.435Z,42.97
2018-12-01T01:41:48.750Z,45.43
2018-12-01T01:44:16.102Z,43.67
2018-12-01T01:46:43.442Z,42.77
2018-12-01T01:49:10.730Z,44.57
2018-12-01T01:51:38.079Z,47.53
2018-12-01T01:54:05.454Z,44.77
2018-12-01T01:56:32.850Z,44.60
2018-12-01T01:59:00.178Z,48.43
2018-12-01T02:01:27.537Z,45.70
2018-12-01T02:03:54.857Z,45.40
2018-12-01T02:06:22.208Z,45.87
2018-12-01T02:08:49.583Z,48.73
2018-12-01T02:11:16.974Z,42.80
2018-12-01T02:13:44.354Z,43.20
2018-12-01T02:16:11.616Z,42.90
2018-12-01T02:18:38.927Z,43.97
2018-12-01T02:21:06.404Z,45.00
2018-12-01T02:23:33.710Z,44.50
2018-12-01T02:26:00.969Z,42.70
2018-12-01T02:28:28.206Z,45.20
2018-12-01T02:30:55.458Z,42.40
2018-12-01T02:33:22.709Z,40.33
2018-12-01T02:35:49.963Z,42.77
2018-12-01T02:38:17.265Z,43.47
2018-12-01T02:40:44.534Z,42.87
2018-12-01T02:43:11.769Z,43.53
2018-12-01T02:45:50.835Z,48.20
2018-12-01T02:48:18.118Z,42.07
2018-12-01T02:50:45.390Z,42.50
2018-12-01T02:53:12.633Z,42.77
2018-12-01T02:55:39.948Z,43.20
2018-12-01T02:58:07.234Z,42.47
2018-12-01T03:00:34.517Z,40.97
2018-12-01T03:03:01.785Z,43.73
2018-12-01T03:05:29.042Z,41.47
2018-12-01T03:07:56.318Z,39.57
2018-12-01T03:10:23.633Z,42.40
2018-12-01T03:12:52.936Z,46.37
2018-12-01T03:15:20.414Z,49.83
2018-12-01T03:17:48.594Z,47.03
2018-12-01T03:20:16.790Z,46.00
2018-12-01T03:22:44.218Z,43.23
2018-12-01T03:25:24.186Z,42.20
2018-12-01T03:27:52.351Z,45.23
2018-12-01T03:30:21.449Z,43.50
2018-12-01T03:32:49.455Z,45.27
2018-12-01T03:35:17.066Z,39.70
2018-12-01T03:37:46.398Z,44.13
2018-12-01T03:40:14.135Z,45.27
2018-12-01T03:42:41.437Z,41.57
2018-12-01T03:45:11.965Z,41.77
2018-12-01T03:47:39.278Z,43.03
2018-12-01T03:50:08.031Z,40.13
2018-12-01T03:52:35.295Z,39.47
2018-12-01T03:55:02.547Z,40.57
2018-12-01T03:57:29.882Z,40.23
2018-12-01T03:59:57.123Z,39.47
2018-12-01T04:02:24.362Z,36.33
2018-12-01T04:04:51.590Z,40.43
2018-12-01T04:07:18.834Z,42.00
2018-12-01T04:09:46.078Z,42.60
2018-12-01T04:12:13.357Z,39.33
2018-12-01T04:14:40.586Z,42.17
2018-12-01T04:17:07.842Z,37.83
2018-12-01T04:19:35.122Z,40.03
2018-12-01T04:22:02.335Z,35.67
2018-12-01T04:24:29.574Z,40.53
2018-12-01T04:26:56.793Z,36.10
2018-12-01T04:29:24.060Z,42.27
2018-12-01T04:31:51.302Z,39.43
2018-12-01T04:34:21.981Z,39.13
2018-12-01T04:36:49.558Z,39.53
2018-12-01T04:39:16.825Z,38.10
2018-12-01T04:41:44.056Z,40.53
2018-12-01T04:44:11.333Z,40.00
2018-12-01T04:46:38.626Z,40.20
2018-12-01T04:49:05.930Z,40.13
2018-12-01T04:51:33.185Z,42.07
2018-12-01T04:54:00.482Z,42.73
2018-12-01T04:56:27.738Z,39.37
2018-12-01T04:58:55.078Z,40.93
2018-12-01T05:01:22.369Z,41.70
2018-12-01T05:03:49.674Z,40.50
2018-12-01T05:06:16.974Z,41.20
2018-12-01T05:08:44.238Z,40.73
2018-12-01T05:11:11.503Z,41.37
2018-12-01T05:13:38.822Z,41.03
2018-12-01T05:16:06.110Z,42.93
2018-12-01T05:18:33.440Z,38.13
2018-12-01T05:21:00.773Z,34.97
2018-12-01T05:23:28.053Z,36.40
2018-12-01T05:25:55.333Z,37.43
2018-12-01T05:28:22.595Z,36.33
2018-12-01T05:30:49.878Z,34.90
2018-12-01T05:33:17.154Z,33.70
2018-12-01T05:35:44.638Z,35.43
2018-12-01T05:38:11.988Z,37.03
2018-12-01T05:40:39.306Z,37.63
2018-12-01T05:43:06.729Z,39.67
2018-12-01T05:45:34.001Z,36.70
2018-12-01T05:48:01.281Z,38.50
2018-12-01T05:50:28.582Z,41.80
2018-12-01T05:52:56.481Z,40.50
2018-12-01T05:55:24.061Z,35.60
2018-12-01T05:57:51.413Z,40.33
2018-12-01T06:00:19.068Z,37.00
2018-12-01T06:02:46.366Z,35.60
2018-12-01T06:05:13.629Z,34.47
2018-12-01T06:07:41.753Z,36.43
2018-12-01T06:10:17.959Z,32.37
2018-12-01T06:12:45.711Z,33.47
2018-12-01T06:15:15.962Z,35.47
2018-12-01T06:17:43.385Z,34.83
2018-12-01T06:20:12.564Z,37.30
2018-12-01T06:22:40.038Z,33.20
2018-12-01T06:25:09.834Z,33.87
2018-12-01T06:27:37.262Z,33.93
2018-12-01T06:30:07.578Z,33.40
2018-12-01T06:32:35.209Z,33.10
2018-12-01T06:35:02.615Z,35.83
2018-12-01T06:37:29.955Z,33.53
2018-12-01T06:39:57.527Z,33.67
2018-12-01T06:42:24.815Z,35.60
2018-12-01T06:45:08.395Z,37.03
2018-12-01T06:47:35.766Z,34.57
2018-12-01T06:50:05.086Z,35.17
2018-12-01T06:52:32.395Z,35.93
2018-12-01T06:55:02.585Z,39.80
2018-12-01T06:57:34.898Z,37.60
2018-12-01T07:00:02.895Z,36.20
2018-12-01T07:02:30.326Z,34.27
2018-12-01T07:04:57.936Z,35.17
2018-12-01T07:07:25.400Z,32.93
2018-12-01T07:09:52.773Z,33.03
2018-12-01T07:12:20.111Z,31.50
2018-12-01T07:14:47.461Z,27.20
2018-12-01T07:17:23.050Z,29.30
2018-12-01T07:19:50.327Z,30.90
2018-12-01T07:22:17.621Z,28.90
2018-12-01T07:24:44.855Z,30.80
2018-12-01T07:27:12.066Z,32.63
2018-12-01T07:29:39.324Z,76.40
2018-12-01T07:32:06.590Z,40.43
2018-12-01T07:34:33.849Z,37.13
2018-12-01T07:37:01.104Z,28.83
2018-12-01T07:39:28.373Z,30.27
2018-12-01T07:41:55.636Z,31.17
2018-12-01T07:44:22.992Z,29.60
2018-12-01T07:46:50.222Z,30.60
2018-12-01T07:49:17.517Z,32.87
2018-12-01T07:51:44.745Z,32.77
2018-12-01T07:54:12.107Z,37.20
2018-12-01T07:56:39.391Z,34.93
2018-12-01T07:59:06.672Z,35.43
2018-12-01T08:01:33.954Z,32.37
2018-12-01T08:04:01.223Z,38.70
2018-12-01T08:06:28.557Z,30.83
2018-12-01T08:08:56.055Z,30.37
2018-12-01T08:11:23.311Z,28.87
2018-12-01T08:13:50.647Z,24.70
2018-12-01T08:16:17.912Z,29.17
2018-12-01T08:18:45.182Z,28.03
2018-12-01T08:21:12.447Z,26.23
2018-12-01T08:23:39.694Z,24.77
2018-12-01T08:26:06.952Z,25.80
2018-12-01T08:28:34.331Z,27.77
2018-12-01T08:31:01.622Z,28.70
2018-12-01T08:33:28.906Z,24.57
2018-12-01T08:35:56.183Z,24.43
2018-12-01T08:38:23.458Z,25.13
2018-12-01T08:40:50.963Z,25.20
2018-12-01T08:43:18.202Z,25.77
2018-12-01T08:45:46.109Z,22.00
2018-12-01T08:48:13.471Z,23.60
2018-12-01T08:50:40.942Z,22.80
2018-12-01T08:53:08.301Z,23.40
2018-12-01T08:55:35.582Z,23.07
2018-12-01T08:58:02.906Z,23.73
2018-12-01T09:00:35.145Z,23.00
2018-12-01T09:03:10.534Z,65.67
2018-12-01T09:05:37.822Z,24.57
2018-12-01T09:08:05.298Z,23.53
2018-12-01T09:10:37.890Z,26.30
2018-12-01T09:13:05.186Z,20.82
2018-12-01T09:15:36.915Z,19.97
2018-12-01T09:18:00.024Z,22.77
2018-12-01T09:20:27.354Z,20.87
2018-12-01T09:22:54.676Z,23.13
2018-12-01T09:25:21.962Z,21.07
2018-12-01T09:27:49.292Z,22.45
2018-12-01T09:30:21.696Z,20.63
2018-12-01T09:32:49.049Z,19.92
2018-12-01T09:35:16.367Z,18.32
2018-12-01T09:37:43.635Z,18.45
2018-12-01T09:40:12.559Z,16.12
2018-12-01T09:42:39.888Z,17.42
2018-12-01T09:45:09.549Z,14.60
2018-12-01T09:47:36.905Z,14.45
2018-12-01T09:50:07.000Z,15.63
2018-12-01T09:52:34.286Z,14.87
2018-12-01T09:55:01.570Z,15.15
2018-12-01T09:57:28.887Z,16.73
2018-12-01T09:59:56.202Z,13.50
2018-12-01T10:02:23.791Z,16.17
2018-12-01T10:04:51.080Z,13.50
2018-12-01T10:07:18.406Z,12.15
2018-12-01T10:09:45.726Z,14.40
2018-12-01T10:12:13.033Z,18.30
2018-12-01T10:14:40.334Z,15.43
2018-12-01T10:17:07.662Z,12.00
2018-12-01T10:19:34.958Z,11.48
2018-12-01T10:22:02.349Z,15.38
2018-12-01T10:24:29.647Z,11.68
2018-12-01T10:26:56.993Z,15.70
2018-12-01T10:29:24.404Z,13.65
2018-12-01T10:31:51.701Z,12.55
2018-12-01T10:34:20.070Z,11.75
2018-12-01T10:36:47.322Z,13.72
2018-12-01T10:39:14.575Z,9.50
2018-12-01T10:41:41.823Z,10.13
2018-12-01T10:44:09.090Z,11.43
2018-12-01T10:46:36.364Z,9.70
2018-12-01T10:49:03.641Z,10.20
2018-12-01T10:51:30.910Z,10.25
2018-12-01T10:53:58.267Z,14.47
2018-12-01T10:56:25.530Z,12.90
2018-12-01T10:58:52.912Z,11.63
2018-12-01T11:01:25.981Z,10.78
2018-12-01T11:03:53.281Z,9.73
2018-12-01T11:06:20.526Z,9.20
2018-12-01T11:08:48.419Z,9.85
2018-12-01T11:11:15.685Z,14.23
2018-12-01T11:13:42.958Z,10.10
2018-12-01T11:16:10.274Z,10.85
2018-12-01T11:18:37.562Z,11.00
2018-12-01T11:21:04.871Z,8.13
2018-12-01T11:23:32.109Z,12.05
2018-12-01T11:25:59.387Z,10.03
2018-12-01T11:28:26.960Z,12.28
2018-12-01T11:30:54.237Z,16.37
2018-12-01T11:33:21.546Z,16.45
2018-12-01T11:35:48.821Z,32.83
2018-12-01T11:38:16.126Z,15.98
2018-12-01T11:40:43.354Z,35.45
2018-12-01T11:43:10.665Z,10.45
2018-12-01T11:45:38.049Z,13.10
2018-12-01T11:48:06.134Z,8.25
2018-12-01T11:50:33.468Z,24.77
2018-12-01T11:53:00.760Z,15.50
2018-12-01T11:55:28.006Z,7.83
2018-12-01T11:57:55.254Z,8.85
2018-12-01T12:00:23.969Z,7.30
2018-12-01T12:02:51.307Z,6.95
2018-12-01T12:05:18.582Z,8.20
2018-12-01T12:07:57.386Z,6.70
2018-12-01T12:10:24.679Z,7.50
2018-12-01T12:12:51.938Z,8.30
2018-12-01T12:15:20.390Z,16.60
2018-12-01T12:17:49.971Z,12.95
2018-12-01T12:20:17.397Z,7.83
2018-12-01T12:22:44.634Z,6.45
2018-12-01T12:25:11.875Z,4.15
2018-12-01T12:27:39.141Z,4.60
2018-12-01T12:30:11.706Z,6.67
2018-12-01T12:32:38.997Z,5.47
2018-12-01T12:35:06.809Z,7.87
2018-12-01T12:37:34.042Z,6.75
2018-12-01T12:40:01.281Z,6.03
2018-12-01T12:42:28.498Z,4.47
2018-12-01T12:44:55.942Z,5.30
2018-12-01T12:47:23.221Z,5.37
2018-12-01T12:49:50.485Z,8.93
2018-12-01T12:52:17.698Z,12.63
2018-12-01T12:54:44.930Z,58.25
2018-12-01T12:57:12.242Z,10.78
2018-12-01T12:59:39.490Z,14.03
2018-12-01T13:02:06.730Z,5.95
2018-12-01T13:04:33.979Z,7.30
2018-12-01T13:07:01.218Z,9.80
2018-12-01T13:09:28.451Z,20.20
2018-12-01T13:11:55.710Z,14.05
2018-12-01T13:14:22.922Z,5.50
2018-12-01T13:16:50.142Z,6.22
2018-12-01T13:19:17.361Z,5.50
2018-12-01T13:21:44.585Z,9.05
2018-12-01T13:24:11.875Z,5.65
2018-12-01T13:26:39.245Z,5.72
2018-12-01T13:29:06.490Z,5.10
2018-12-01T13:31:33.749Z,5.30
2018-12-01T13:34:01.000Z,5.60
2018-12-01T13:36:28.297Z,6.05
2018-12-01T13:38:55.558Z,4.85
2018-12-01T13:41:22.806Z,12.98
2018-12-01T13:43:50.106Z,41.75
2018-12-01T13:46:17.397Z,15.88
2018-12-01T13:48:44.659Z,14.35
2018-12-01T13:51:11.943Z,18.07
2018-12-01T13:53:39.189Z,28.32
2018-12-01T13:56:06.486Z,43.08
2018-12-01T13:58:33.806Z,27.90
2018-12-01T14:01:01.030Z,17.12
2018-12-01T14:03:28.297Z,44.40
2018-12-01T14:05:55.577Z,19.73
2018-12-01T14:08:22.837Z,14.03
2018-12-01T14:10:51.004Z,7.62
2018-12-01T14:13:18.282Z,7.20
2018-12-01T14:15:45.529Z,8.78
2018-12-01T14:18:13.398Z,6.97
2018-12-01T14:20:40.720Z,8.65
2018-12-01T14:23:08.018Z,7.28
2018-12-01T14:25:35.258Z,7.92
2018-12-01T14:28:04.463Z,7.50
2018-12-01T14:30:31.739Z,7.47
2018-12-01T14:32:59.063Z,9.38
2018-12-01T14:35:27.506Z,8.80
2018-12-01T14:37:59.453Z,10.85
2018-12-01T14:40:26.729Z,10.35
2018-12-01T14:42:54.088Z,11.70
2018-12-01T14:45:21.438Z,11.05
2018-12-01T14:47:48.750Z,11.97
2018-12-01T14:50:16.140Z,12.70
2018-12-01T14:52:44.265Z,12.23
2018-12-01T14:55:15.545Z,11.23
2018-12-01T14:57:42.827Z,13.00
2018-12-01T15:00:11.829Z,12.83
2018-12-01T15:02:39.144Z,12.68
2018-12-01T15:05:06.741Z,12.47
2018-12-01T15:07:34.055Z,11.63
2018-12-01T15:10:01.315Z,14.17
2018-12-01T15:12:28.626Z,14.73
2018-12-01T15:14:57.004Z,12.57
2018-12-01T15:17:23.279Z,17.53
2018-12-01T15:19:50.583Z,12.33
2018-12-01T15:22:17.850Z,15.60
2018-12-01T15:24:45.154Z,12.97
2018-12-01T15:27:12.545Z,11.77
2018-12-01T15:29:39.915Z,13.73
2018-12-01T15:32:07.225Z,16.63
2018-12-01T15:34:34.493Z,14.50
2018-12-01T15:37:01.845Z,14.10
2018-12-01T15:39:29.255Z,16.73
2018-12-01T15:41:56.585Z,13.63
2018-12-01T15:44:24.150Z,18.27
2018-12-01T15:46:52.514Z,16.47
2018-12-01T15:49:20.217Z,13.63
2018-12-01T15:51:47.950Z,13.10
2018-12-01T15:54:15.603Z,12.37
2018-12-01T15:56:43.154Z,15.97
2018-12-01T15:59:10.939Z,14.23
2018-12-01T16:01:38.457Z,13.40
2018-12-01T16:04:06.120Z,15.80
2018-12-01T16:06:34.465Z,16.07
2018-12-01T16:09:02.242Z,16.73
2018-12-01T16:11:29.871Z,16.47
2018-12-01T16:13:57.303Z,15.50
2018-12-01T16:16:25.417Z,15.60
2018-12-01T16:18:53.493Z,15.77
2018-12-01T16:21:21.736Z,15.27
2018-12-01T16:23:49.256Z,18.90
2018-12-01T16:26:17.057Z,16.17
2018-12-01T16:28:44.391Z,69.20
2018-12-01T16:31:12.813Z,15.80
2018-12-01T16:33:40.054Z,16.30
2018-12-01T16:36:07.400Z,18.07
2018-12-01T16:38:35.284Z,15.90
2018-12-01T16:41:08.728Z,17.90
2018-12-01T16:43:36.120Z,17.93
2018-12-01T16:46:03.470Z,16.57
2018-12-01T16:48:30.981Z,17.03
2018-12-01T16:50:58.385Z,17.13
2018-12-01T16:53:26.142Z,15.83
2018-12-01T16:55:53.592Z,17.67
2018-12-01T16:58:20.924Z,13.10
2018-12-01T17:00:48.257Z,16.03
2018-12-01T17:03:15.557Z,18.07
2018-12-01T17:05:45.786Z,16.63
2018-12-01T17:08:13.089Z,16.93
2018-12-01T17:10:40.369Z,16.47
2018-12-01T17:13:08.293Z,18.20
2018-12-01T17:15:35.622Z,18.43
2018-12-01T17:18:02.969Z,19.53
2018-12-01T17:20:30.328Z,17.57
2018-12-01T17:22:58.190Z,20.00
2018-12-01T17:25:26.494Z,16.53
2018-12-01T17:27:55.086Z,18.07
2018-12-01T17:30:23.589Z,18.47
2018-12-01T17:32:51.407Z,17.87
2018-12-01T17:35:20.594Z,15.87
2018-12-01T17:37:49.514Z,16.77
2018-12-01T17:40:21.945Z,17.63
2018-12-01T17:42:51.912Z,17.13
2018-12-01T17:45:19.193Z,16.40
2018-12-01T17:47:46.526Z,17.20
2018-12-01T17:50:15.518Z,18.17
2018-12-01T17:52:44.700Z,17.20
2018-12-01T17:55:13.086Z,17.23
2018-12-01T17:57:40.402Z,19.50
2018-12-01T18:00:12.321Z,17.20
2018-12-01T18:02:39.629Z,19.93
2018-12-01T18:05:09.882Z,17.33
2018-12-01T18:07:37.170Z,16.50
2018-12-01T18:10:08.395Z,16.50
2018-12-01T18:12:35.731Z,16.57
2018-12-01T18:15:05.431Z,16.10
2018-12-01T18:17:32.747Z,15.83
2018-12-01T18:20:00.054Z,16.33
2018-12-01T18:22:27.387Z,16.07
2018-12-01T18:24:54.709Z,16.93
2018-12-01T18:27:22.037Z,17.23
2018-12-01T18:29:49.325Z,14.70
2018-12-01T18:32:16.663Z,18.67
2018-12-01T18:34:43.947Z,19.93
2018-12-01T18:37:11.289Z,15.90
2018-12-01T18:39:38.638Z,15.53
2018-12-01T18:42:06.010Z,14.70
2018-12-01T18:44:33.311Z,17.27
2018-12-01T18:47:00.568Z,17.53
2018-12-01T18:49:27.778Z,18.57
2018-12-01T18:51:55.156Z,18.97
2018-12-01T18:54:22.409Z,18.37
2018-12-01T18:56:49.681Z,16.27
2018-12-01T18:59:16.950Z,17.97
2018-12-01T19:01:45.879Z,17.30
2018-12-01T19:04:13.130Z,19.23
2018-12-01T19:06:40.382Z,19.53
2018-12-01T19:09:07.730Z,18.47
2018-12-01T19:11:34.991Z,17.20
2018-12-01T19:14:02.251Z,20.47
2018-12-01T19:16:29.570Z,21.33
2018-12-01T19:18:56.838Z,18.30
2018-12-01T19:21:26.195Z,21.30
2018-12-01T19:23:53.443Z,20.03
2018-12-01T19:26:20.655Z,19.87
2018-12-01T19:28:47.927Z,23.57
2018-12-01T19:31:15.383Z,22.43
2018-12-01T19:33:42.654Z,23.17
2018-12-01T19:36:09.883Z,20.33
2018-12-01T19:38:37.159Z,23.43
2018-12-01T19:41:04.708Z,20.97
2018-12-01T19:43:31.996Z,20.30
2018-12-01T19:45:59.341Z,22.13
2018-12-01T19:48:26.623Z,21.33
2018-12-01T19:50:53.878Z,23.77
2018-12-01T19:53:21.146Z,23.17
2018-12-01T19:55:50.043Z,20.33
2018-12-01T19:58:19.041Z,22.23
2018-12-01T20:00:48.224Z,22.57
2018-12-01T20:03:16.832Z,21.63
2018-12-01T20:05:44.110Z,22.57
2018-12-01T20:08:12.043Z,22.63
2018-12-01T20:10:42.665Z,28.80
2018-12-01T20:13:16.573Z,22.27
2018-12-01T20:15:46.228Z,21.87
2018-12-01T20:18:22.780Z,23.57
2018-12-01T20:20:50.074Z,21.07
2018-12-01T20:23:17.354Z,21.10
2018-12-01T20:25:47.303Z,18.83
2018-12-01T20:28:14.558Z,18.97
2018-12-01T20:30:41.782Z,20.03
2018-12-01T20:33:09.047Z,23.17
2018-12-01T20:35:44.226Z,34.60
2018-12-01T20:38:15.323Z,21.57
2018-12-01T20:40:42.602Z,24.20
2018-12-01T20:43:09.903Z,20.77
2018-12-01T20:45:37.386Z,23.50
2018-12-01T20:48:04.953Z,22.07
2018-12-01T20:50:32.261Z,21.00
2018-12-01T20:52:59.590Z,22.47
2018-12-01T20:55:28.398Z,20.50
2018-12-01T20:57:57.631Z,23.57
2018-12-01T21:00:25.274Z,21.80
2018-12-01T21:02:52.603Z,23.37
2018-12-01T21:05:21.254Z,23.13
2018-12-01T21:07:48.514Z,23.53
2018-12-01T21:10:28.481Z,23.47
2018-12-01T21:12:56.961Z,22.70
2018-12-01T21:15:24.458Z,23.10
2018-12-01T21:17:51.730Z,22.67
2018-12-01T21:20:18.983Z,27.03
2018-12-01T21:22:48.394Z,25.50
2018-12-01T21:25:17.190Z,23.17
2018-12-01T21:27:44.454Z,24.57
2018-12-01T21:30:28.934Z,23.40
2018-12-01T21:33:04.739Z,23.03
2018-12-01T21:35:32.226Z,23.50
2018-12-01T21:37:59.533Z,24.47
2018-12-01T21:40:26.804Z,22.13
2018-12-01T21:42:54.217Z,25.53
2018-12-01T21:45:21.526Z,23.00
2018-12-01T21:47:48.886Z,23.13
2018-12-01T21:50:18.414Z,24.27
2018-12-01T21:52:47.966Z,26.23
2018-12-01T21:55:15.405Z,22.97
2018-12-01T21:57:43.864Z,24.77
2018-12-01T22:00:15.771Z,24.83
2018-12-01T22:02:44.077Z,24.50
2018-12-01T22:05:13.344Z,42.77
2018-12-01T22:07:40.658Z,25.17
2018-12-01T22:10:09.946Z,22.20
2018-12-01T22:12:37.306Z,21.53
2018-12-01T22:15:06.805Z,22.27
2018-12-01T22:17:34.099Z,23.70
2018-12-01T22:20:01.371Z,21.27
2018-12-01T22:22:28.695Z,21.50
2018-12-01T22:24:56.085Z,22.10
2018-12-01T22:27:23.391Z,21.43
2018-12-01T22:29:50.713Z,21.23
2018-12-01T22:32:17.981Z,21.20
2018-12-01T22:34:45.297Z,20.97
2018-12-01T22:37:12.634Z,21.93
2018-12-01T22:39:40.030Z,21.57
2018-12-01T22:42:07.323Z,22.33
2018-12-01T22:44:34.614Z,21.40
2018-12-01T22:47:01.895Z,22.27
2018-12-01T22:49:29.219Z,20.43
2018-12-01T22:51:56.570Z,22.73
2018-12-01T22:54:23.845Z,21.10
2018-12-01T22:56:51.415Z,21.60
2018-12-01T22:59:18.699Z,21.23
2018-12-01T23:01:46.010Z,23.93
2018-12-01T23:04:13.270Z,22.83
2018-12-01T23:06:40.632Z,20.50
2018-12-01T23:09:07.981Z,20.63
2018-12-01T23:11:36.114Z,21.23
2018-12-01T23:14:03.403Z,22.57
2018-12-01T23:16:30.686Z,20.60
2018-12-01T23:18:57.973Z,21.77
2018-12-01T23:21:25.245Z,23.80
2018-12-01T23:23:52.511Z,20.40
2018-12-01T23:26:21.798Z,19.60
2018-12-01T23:28:49.094Z,21.33
2018-12-01T23:31:16.329Z,21.50
2018-12-01T23:33:43.557Z,22.73
2018-12-01T23:36:10.838Z,19.23
2018-12-01T23:38:38.089Z,19.10
2018-12-01T23:41:05.335Z,18.30
2018-12-01T23:43:32.761Z,19.23
2018-12-01T23:46:00.074Z,17.80
2018-12-01T23:48:27.314Z,16.77
2018-12-01T23:50:55.178Z,18.43
2018-12-01T23:53:23.492Z,15.90
2018-12-01T23:55:50.772Z,18.43
2018-12-01T23:58:18.317Z,17.87
